createdAt,value
2018-08-13T00:00:06.458Z,58.16
2018-08-13T00:02:36.059Z,57.83
2018-08-13T00:05:06.043Z,57.90
2018-08-13T00:07:35.643Z,57.51
2018-08-13T00:10:05.453Z,57.34
2018-08-13T00:12:35.043Z,58.22
2018-08-13T00:15:04.792Z,57.57
2018-08-13T00:17:34.371Z,58.28
2018-08-13T00:20:03.962Z,58.09
2018-08-13T00:22:33.520Z,59.09
2018-08-13T00:25:03.139Z,58.78
2018-08-13T00:27:32.723Z,58.28
2018-08-13T00:30:02.282Z,58.69
2018-08-13T00:32:31.910Z,58.31
2018-08-13T00:35:01.567Z,58.00
2018-08-13T00:37:31.119Z,58.18
2018-08-13T00:40:00.706Z,58.64
2018-08-13T00:42:30.299Z,58.49
2018-08-13T00:44:59.895Z,58.87
2018-08-13T00:47:29.413Z,59.06
2018-08-13T00:49:58.982Z,58.92
2018-08-13T00:52:28.527Z,57.80
2018-08-13T00:54:58.124Z,58.08
2018-08-13T00:57:27.685Z,58.21
2018-08-13T00:59:57.287Z,59.26
2018-08-13T01:02:26.812Z,58.16
2018-08-13T01:04:56.392Z,58.28
2018-08-13T01:07:26.028Z,58.88
2018-08-13T01:09:55.641Z,58.34
2018-08-13T01:12:25.296Z,58.63
2018-08-13T01:14:54.815Z,58.81
2018-08-13T01:17:24.444Z,59.42
2018-08-13T01:19:54.030Z,58.61
2018-08-13T01:22:23.591Z,59.16
2018-08-13T01:24:53.167Z,59.65
2018-08-13T01:27:27.855Z,60.24
2018-08-13T01:29:57.471Z,59.93
2018-08-13T01:32:27.025Z,60.08
2018-08-13T01:34:56.725Z,59.23
2018-08-13T01:37:26.936Z,59.68
2018-08-13T01:39:57.177Z,60.01
2018-08-13T01:42:26.683Z,59.90
2018-08-13T01:44:56.301Z,60.19
2018-08-13T01:47:25.839Z,60.24
2018-08-13T01:49:55.412Z,60.50
2018-08-13T01:52:24.993Z,60.60
2018-08-13T01:54:54.499Z,59.62
2018-08-13T01:57:24.144Z,59.83
2018-08-13T01:59:53.671Z,60.09
2018-08-13T02:02:23.202Z,59.75
2018-08-13T02:04:52.811Z,60.26
2018-08-13T02:07:22.476Z,60.08
2018-08-13T02:09:52.107Z,60.54
2018-08-13T02:12:21.742Z,60.74
2018-08-13T02:14:51.292Z,60.58
2018-08-13T02:17:20.935Z,60.50
2018-08-13T02:19:50.481Z,60.19
2018-08-13T02:22:20.128Z,60.32
2018-08-13T02:24:49.779Z,60.30
2018-08-13T02:27:19.323Z,59.89
2018-08-13T02:29:48.907Z,59.91
2018-08-13T02:32:18.450Z,59.23
2018-08-13T02:34:48.021Z,59.41
2018-08-13T02:37:17.644Z,59.25
2018-08-13T02:39:47.331Z,60.30
2018-08-13T02:42:16.912Z,60.41
2018-08-13T02:44:46.492Z,60.40
2018-08-13T02:47:15.985Z,60.84
2018-08-13T02:49:45.573Z,59.88
2018-08-13T02:52:15.164Z,60.01
2018-08-13T02:54:44.735Z,59.59
2018-08-13T02:57:14.329Z,59.79
2018-08-13T02:59:43.928Z,60.06
2018-08-13T03:02:13.564Z,60.34
2018-08-13T03:04:43.293Z,60.48
2018-08-13T03:07:12.856Z,60.23
2018-08-13T03:09:42.444Z,60.62
2018-08-13T03:12:11.989Z,60.02
2018-08-13T03:14:41.608Z,59.61
2018-08-13T03:17:12.460Z,59.60
2018-08-13T03:19:42.068Z,59.07
2018-08-13T03:22:11.635Z,58.89
2018-08-13T03:24:41.276Z,58.93
2018-08-13T03:27:10.871Z,58.68
2018-08-13T03:29:40.423Z,58.38
2018-08-13T03:32:10.045Z,57.74
2018-08-13T03:34:39.709Z,57.78
2018-08-13T03:37:09.248Z,56.80
2018-08-13T03:39:38.862Z,56.84
2018-08-13T03:42:08.391Z,56.13
2018-08-13T03:44:37.962Z,57.03
2018-08-13T03:47:07.547Z,56.83
2018-08-13T03:49:37.172Z,56.37
2018-08-13T03:52:08.851Z,56.49
2018-08-13T03:54:38.460Z,57.29
2018-08-13T03:57:08.080Z,56.28
2018-08-13T03:59:37.699Z,57.27
2018-08-13T04:02:07.232Z,57.00
2018-08-13T04:04:36.856Z,55.89
2018-08-13T04:07:06.606Z,56.58
2018-08-13T04:09:36.216Z,55.96
2018-08-13T04:12:05.843Z,56.06
2018-08-13T04:14:35.426Z,55.17
2018-08-13T04:17:05.208Z,54.79
2018-08-13T04:19:34.872Z,54.96
2018-08-13T04:22:04.547Z,54.49
2018-08-13T04:24:34.155Z,54.38
2018-08-13T04:27:03.786Z,54.23
2018-08-13T04:29:33.362Z,53.49
2018-08-13T04:32:02.930Z,52.22
2018-08-13T04:34:32.519Z,51.81
2018-08-13T04:37:02.183Z,52.75
2018-08-13T04:39:31.731Z,52.51
2018-08-13T04:42:01.367Z,51.71
2018-08-13T04:44:30.897Z,51.34
2018-08-13T04:47:00.451Z,50.52
2018-08-13T04:49:30.000Z,50.09
2018-08-13T04:51:59.648Z,50.15
2018-08-13T04:54:29.203Z,49.54
2018-08-13T04:56:58.817Z,48.95
2018-08-13T04:59:28.473Z,48.02
2018-08-13T05:01:58.095Z,47.96
2018-08-13T05:04:27.763Z,47.67
2018-08-13T05:06:57.352Z,47.05
2018-08-13T05:09:27.192Z,46.95
2018-08-13T05:11:56.725Z,46.71
2018-08-13T05:14:26.397Z,46.34
2018-08-13T05:16:56.591Z,45.42
2018-08-13T05:19:26.167Z,45.68
2018-08-13T05:21:55.805Z,45.41
2018-08-13T05:24:25.375Z,44.75
2018-08-13T05:26:55.028Z,43.57
2018-08-13T05:29:24.599Z,44.01
2018-08-13T05:31:54.227Z,43.42
2018-08-13T05:34:23.823Z,42.66
2018-08-13T05:36:53.445Z,43.35
2018-08-13T05:39:22.978Z,43.25
2018-08-13T05:41:52.683Z,43.43
2018-08-13T05:44:22.232Z,42.99
2018-08-13T05:46:51.771Z,43.23
2018-08-13T05:49:21.318Z,43.43
2018-08-13T05:51:51.247Z,43.70
2018-08-13T05:54:21.107Z,43.43
2018-08-13T05:56:50.719Z,42.20
2018-08-13T05:59:20.315Z,42.77
2018-08-13T06:01:49.923Z,42.10
2018-08-13T06:04:19.607Z,43.60
2018-08-13T06:06:49.390Z,42.25
2018-08-13T06:09:18.938Z,41.42
2018-08-13T06:11:48.588Z,42.01
2018-08-13T06:14:18.171Z,42.28
2018-08-13T06:16:47.754Z,42.51
2018-08-13T06:19:17.348Z,42.91
2018-08-13T06:21:47.028Z,42.80
2018-08-13T06:24:16.668Z,42.36
2018-08-13T06:26:46.416Z,42.25
2018-08-13T06:29:16.075Z,41.39
2018-08-13T06:31:45.667Z,41.52
2018-08-13T06:34:15.271Z,41.81
2018-08-13T06:36:44.830Z,41.19
2018-08-13T06:39:14.503Z,41.99
2018-08-13T06:41:44.243Z,41.54
2018-08-13T06:44:13.921Z,41.48
2018-08-13T06:46:43.563Z,40.91
2018-08-13T06:49:13.232Z,40.38
2018-08-13T06:51:42.903Z,40.94
2018-08-13T06:54:12.534Z,39.74
2018-08-13T06:56:42.108Z,39.62
2018-08-13T06:59:11.756Z,39.33
2018-08-13T07:01:41.291Z,39.97
2018-08-13T07:04:10.960Z,39.50
2018-08-13T07:06:40.589Z,39.89
2018-08-13T07:09:11.227Z,39.00
2018-08-13T07:11:40.789Z,38.34
2018-08-13T07:14:10.404Z,38.34
2018-08-13T07:16:39.982Z,38.91
2018-08-13T07:19:09.485Z,37.70
2018-08-13T07:21:39.123Z,37.41
2018-08-13T07:24:08.880Z,37.70
2018-08-13T07:26:38.512Z,37.96
2018-08-13T07:29:08.234Z,37.04
2018-08-13T07:31:37.872Z,37.45
2018-08-13T07:34:07.744Z,37.05
2018-08-13T07:36:37.487Z,36.74
2018-08-13T07:39:09.572Z,36.29
2018-08-13T07:41:39.425Z,36.69
2018-08-13T07:44:09.444Z,35.90
2018-08-13T07:46:39.132Z,36.43
2018-08-13T07:49:08.847Z,35.74
2018-08-13T07:51:38.459Z,36.27
2018-08-13T07:54:08.186Z,36.19
2018-08-13T07:56:37.753Z,36.36
2018-08-13T07:59:07.376Z,36.01
2018-08-13T08:01:37.066Z,35.81
2018-08-13T08:04:06.654Z,36.22
2018-08-13T08:06:36.200Z,35.57
2018-08-13T08:09:09.514Z,36.08
2018-08-13T08:11:39.191Z,35.51
2018-08-13T08:14:09.186Z,35.28
2018-08-13T08:16:38.877Z,35.73
2018-08-13T08:19:08.392Z,36.00
2018-08-13T08:21:37.976Z,35.75
2018-08-13T08:24:07.823Z,34.75
2018-08-13T08:26:38.384Z,35.07
2018-08-13T08:29:09.338Z,35.33
2018-08-13T08:31:39.111Z,35.03
2018-08-13T08:34:09.436Z,34.49
2018-08-13T08:36:39.256Z,34.64
2018-08-13T08:39:12.229Z,35.82
2018-08-13T08:41:41.880Z,34.92
2018-08-13T08:44:11.967Z,34.93
2018-08-13T08:46:42.108Z,34.28
2018-08-13T08:49:11.728Z,34.46
2018-08-13T08:51:41.363Z,33.84
2018-08-13T08:54:11.689Z,33.26
2018-08-13T08:56:41.320Z,33.42
2018-08-13T08:59:11.220Z,32.29
2018-08-13T09:01:40.955Z,31.83
2018-08-13T09:04:10.666Z,31.54
2018-08-13T09:06:40.280Z,30.82
2018-08-13T09:09:12.475Z,32.31
2018-08-13T09:11:42.866Z,31.21
2018-08-13T09:14:12.562Z,31.71
2018-08-13T09:16:44.627Z,31.65
2018-08-13T09:19:25.038Z,31.02
2018-08-13T09:22:04.367Z,30.32
2018-08-13T09:24:44.800Z,30.72
2018-08-13T09:27:25.223Z,29.98
2018-08-13T09:30:05.716Z,30.19
2018-08-13T09:32:46.213Z,30.64
2018-08-13T09:35:19.407Z,30.38
2018-08-13T09:37:48.947Z,29.86
2018-08-13T09:40:18.620Z,29.91
2018-08-13T09:42:48.291Z,30.00
2018-08-13T09:45:18.135Z,28.43
2018-08-13T09:47:47.900Z,27.85
2018-08-13T09:50:18.539Z,27.04
2018-08-13T09:52:48.920Z,27.30
2018-08-13T09:55:19.077Z,25.77
2018-08-13T09:57:49.329Z,27.29
2018-08-13T10:00:25.275Z,27.64
2018-08-13T10:02:54.951Z,28.31
2018-08-13T10:05:24.708Z,27.17
2018-08-13T10:07:54.257Z,27.10
2018-08-13T10:10:23.947Z,26.74
2018-08-13T10:12:53.746Z,26.28
2018-08-13T10:15:23.597Z,27.56
2018-08-13T10:17:53.307Z,27.37
2018-08-13T10:20:22.943Z,27.34
2018-08-13T10:22:52.587Z,26.28
2018-08-13T10:25:22.210Z,26.19
2018-08-13T10:27:51.739Z,25.95
2018-08-13T10:30:21.480Z,26.32
2018-08-13T10:32:51.109Z,25.44
2018-08-13T10:35:20.699Z,26.36
2018-08-13T10:37:50.292Z,26.37
2018-08-13T10:40:20.387Z,27.48
2018-08-13T10:42:50.075Z,26.55
2018-08-13T10:45:19.688Z,25.59
2018-08-13T10:47:49.395Z,26.20
2018-08-13T10:50:18.918Z,24.98
2018-08-13T10:52:48.522Z,25.40
2018-08-13T10:55:18.195Z,24.11
2018-08-13T10:57:47.891Z,22.25
2018-08-13T11:00:17.947Z,22.79
2018-08-13T11:02:47.653Z,23.82
2018-08-13T11:05:17.367Z,23.63
2018-08-13T11:07:47.011Z,24.37
2018-08-13T11:10:17.038Z,24.93
2018-08-13T11:12:46.660Z,25.81
2018-08-13T11:15:18.871Z,24.21
2018-08-13T11:17:48.518Z,24.65
2018-08-13T11:20:18.347Z,25.49
2018-08-13T11:22:48.196Z,25.77
2018-08-13T11:25:17.954Z,24.56
2018-08-13T11:27:47.474Z,25.41
2018-08-13T11:30:17.736Z,25.07
2018-08-13T11:32:47.363Z,24.28
2018-08-13T11:35:17.191Z,24.88
2018-08-13T11:37:46.799Z,24.94
2018-08-13T11:40:17.540Z,24.59
2018-08-13T11:42:47.249Z,24.46
2018-08-13T11:45:16.803Z,24.20
2018-08-13T11:47:46.459Z,24.18
2018-08-13T11:50:18.576Z,22.79
2018-08-13T11:52:49.351Z,23.03
2018-08-13T11:55:19.209Z,22.34
2018-08-13T11:57:49.822Z,22.64
2018-08-13T12:00:19.505Z,23.38
2018-08-13T12:02:49.220Z,23.41
2018-08-13T12:05:18.794Z,23.11
2018-08-13T12:07:48.467Z,22.27
2018-08-13T12:10:18.063Z,22.65
2018-08-13T12:12:47.735Z,23.39
2018-08-13T12:15:17.282Z,22.80
2018-08-13T12:17:47.032Z,22.62
2018-08-13T12:20:18.557Z,23.12
2018-08-13T12:22:48.455Z,23.23
2018-08-13T12:25:26.502Z,23.96
2018-08-13T12:27:56.326Z,23.28
2018-08-13T12:30:26.185Z,24.12
2018-08-13T12:32:56.466Z,23.39
2018-08-13T12:35:26.063Z,23.00
2018-08-13T12:37:55.723Z,22.52
2018-08-13T12:40:25.315Z,22.66
2018-08-13T12:42:54.964Z,21.92
2018-08-13T12:45:24.670Z,21.84
2018-08-13T12:47:54.316Z,22.50
2018-08-13T12:50:24.040Z,21.24
2018-08-13T12:52:53.647Z,22.50
2018-08-13T12:55:23.423Z,22.69
2018-08-13T12:57:52.987Z,23.14
2018-08-13T13:00:22.694Z,23.43
2018-08-13T13:02:52.235Z,22.92
2018-08-13T13:05:21.927Z,23.38
2018-08-13T13:07:51.535Z,22.87
2018-08-13T13:10:21.131Z,22.77
2018-08-13T13:12:50.723Z,22.77
2018-08-13T13:15:21.148Z,21.95
2018-08-13T13:17:50.853Z,21.71
2018-08-13T13:20:22.536Z,22.74
2018-08-13T13:22:52.497Z,22.33
2018-08-13T13:25:22.136Z,21.45
2018-08-13T13:27:51.860Z,21.44
2018-08-13T13:30:21.540Z,21.66
2018-08-13T13:32:51.347Z,20.04
2018-08-13T13:35:24.932Z,19.90
2018-08-13T13:37:54.648Z,20.02
2018-08-13T13:40:24.297Z,19.90
2018-08-13T13:42:53.873Z,19.70
2018-08-13T13:45:23.455Z,21.33
2018-08-13T13:47:53.104Z,22.49
2018-08-13T13:50:22.733Z,22.10
2018-08-13T13:52:52.259Z,23.16
2018-08-13T13:55:21.924Z,23.80
2018-08-13T13:57:51.511Z,23.53
2018-08-13T14:00:21.948Z,23.49
2018-08-13T14:02:52.543Z,23.01
2018-08-13T14:05:22.217Z,22.61
2018-08-13T14:07:51.871Z,22.08
2018-08-13T14:10:23.163Z,21.78
2018-08-13T14:12:52.895Z,21.54
2018-08-13T14:15:23.319Z,21.55
2018-08-13T14:17:53.151Z,21.85
2018-08-13T14:20:22.851Z,21.64
2018-08-13T14:22:52.579Z,21.90
2018-08-13T14:25:22.245Z,21.65
2018-08-13T14:27:51.849Z,21.57
2018-08-13T14:30:23.665Z,21.92
2018-08-13T14:32:53.480Z,22.29
2018-08-13T14:35:23.932Z,23.13
2018-08-13T14:37:53.655Z,22.36
2018-08-13T14:40:23.338Z,22.08
2018-08-13T14:42:53.023Z,21.88
2018-08-13T14:45:22.782Z,21.52
2018-08-13T14:47:52.969Z,21.71
2018-08-13T14:50:22.633Z,22.43
2018-08-13T14:52:52.288Z,23.05
2018-08-13T14:55:22.839Z,22.22
2018-08-13T14:57:52.416Z,21.85
2018-08-13T15:00:24.495Z,22.29
2018-08-13T15:02:55.130Z,22.08
2018-08-13T15:05:24.801Z,22.00
2018-08-13T15:07:54.375Z,22.27
2018-08-13T15:10:25.179Z,22.69
2018-08-13T15:12:55.020Z,22.58
2018-08-13T15:15:24.699Z,22.54
2018-08-13T15:17:54.247Z,23.25
2018-08-13T15:20:26.987Z,23.52
2018-08-13T15:22:56.674Z,24.94
2018-08-13T15:25:26.527Z,24.37
2018-08-13T15:27:56.233Z,23.60
2018-08-13T15:30:26.261Z,23.67
2018-08-13T15:32:55.871Z,23.84
2018-08-13T15:35:25.620Z,24.14
2018-08-13T15:37:55.116Z,23.56
2018-08-13T15:40:24.754Z,23.68
2018-08-13T15:42:54.384Z,23.32
2018-08-13T15:45:24.761Z,23.96
2018-08-13T15:47:54.357Z,24.52
2018-08-13T15:50:24.512Z,24.65
2018-08-13T15:52:54.191Z,25.15
2018-08-13T15:55:23.907Z,24.56
2018-08-13T15:57:53.522Z,25.22
2018-08-13T16:00:25.064Z,25.48
2018-08-13T16:02:54.985Z,25.88
2018-08-13T16:05:24.665Z,25.80
2018-08-13T16:07:54.492Z,26.36
2018-08-13T16:10:24.065Z,26.70
2018-08-13T16:12:55.295Z,26.89
2018-08-13T16:15:25.329Z,27.16
2018-08-13T16:17:54.932Z,27.52
2018-08-13T16:20:24.619Z,27.75
2018-08-13T16:22:54.135Z,27.56
2018-08-13T16:25:23.754Z,27.95
2018-08-13T16:27:53.360Z,27.89
2018-08-13T16:30:30.613Z,28.65
2018-08-13T16:33:00.352Z,28.76
2018-08-13T16:35:30.087Z,28.75
2018-08-13T16:37:59.595Z,29.02
2018-08-13T16:40:29.635Z,29.03
2018-08-13T16:42:59.269Z,29.22
2018-08-13T16:45:28.980Z,30.11
2018-08-13T16:47:58.615Z,30.21
2018-08-13T16:50:30.144Z,30.47
2018-08-13T16:53:00.211Z,30.62
2018-08-13T16:55:30.994Z,30.83
2018-08-13T16:58:01.384Z,30.79
2018-08-13T17:00:31.956Z,31.11
2018-08-13T17:03:01.883Z,30.79
2018-08-13T17:05:33.223Z,31.35
2018-08-13T17:08:02.914Z,31.36
2018-08-13T17:10:32.492Z,31.98
2018-08-13T17:13:02.167Z,32.28
2018-08-13T17:15:32.432Z,32.23
2018-08-13T17:18:02.982Z,33.39
2018-08-13T17:20:36.118Z,32.85
2018-08-13T17:23:05.691Z,33.65
2018-08-13T17:25:35.500Z,34.22
2018-08-13T17:28:05.179Z,34.97
2018-08-13T17:30:34.867Z,35.05
2018-08-13T17:33:04.613Z,35.13
2018-08-13T17:35:35.387Z,34.94
2018-08-13T17:38:09.593Z,35.74
2018-08-13T17:40:39.309Z,35.72
2018-08-13T17:43:10.434Z,35.92
2018-08-13T17:45:39.882Z,35.72
2018-08-13T17:48:10.305Z,35.35
2018-08-13T17:50:39.925Z,35.79
2018-08-13T17:53:10.224Z,35.79
2018-08-13T17:55:39.895Z,36.54
2018-08-13T17:58:09.552Z,36.52
2018-08-13T18:00:39.248Z,36.32
2018-08-13T18:03:08.920Z,36.13
2018-08-13T18:05:38.554Z,35.65
2018-08-13T18:08:08.401Z,36.49
2018-08-13T18:10:38.046Z,36.34
2018-08-13T18:13:08.908Z,36.35
2018-08-13T18:15:38.705Z,36.14
2018-08-13T18:18:08.245Z,36.73
2018-08-13T18:20:37.836Z,36.69
2018-08-13T18:23:07.564Z,36.65
2018-08-13T18:25:37.232Z,37.04
2018-08-13T18:28:06.876Z,36.88
2018-08-13T18:30:36.587Z,37.16
2018-08-13T18:33:06.565Z,37.60
2018-08-13T18:35:36.103Z,38.16
2018-08-13T18:38:05.711Z,38.00
2018-08-13T18:40:35.507Z,37.92
2018-08-13T18:43:05.163Z,38.61
2018-08-13T18:45:34.787Z,38.08
2018-08-13T18:48:04.444Z,38.52
2018-08-13T18:50:34.051Z,38.60
2018-08-13T18:53:03.753Z,38.47
2018-08-13T18:55:33.357Z,38.18
2018-08-13T18:58:03.047Z,39.07
2018-08-13T19:00:32.816Z,38.75
2018-08-13T19:03:03.094Z,39.42
2018-08-13T19:05:34.300Z,39.28
2018-08-13T19:08:04.039Z,39.12
2018-08-13T19:10:33.616Z,39.16
2018-08-13T19:13:03.183Z,39.61
2018-08-13T19:15:32.751Z,39.71
2018-08-13T19:18:02.345Z,40.23
2018-08-13T19:20:32.042Z,41.08
2018-08-13T19:23:01.715Z,41.89
2018-08-13T19:25:31.420Z,41.36
2018-08-13T19:28:01.052Z,42.03
2018-08-13T19:30:30.792Z,43.19
2018-08-13T19:33:00.401Z,44.38
2018-08-13T19:35:30.053Z,44.34
2018-08-13T19:37:59.588Z,44.86
2018-08-13T19:40:29.411Z,44.83
2018-08-13T19:42:58.932Z,45.20
2018-08-13T19:45:28.487Z,45.21
2018-08-13T19:47:58.115Z,45.63
2018-08-13T19:50:27.664Z,45.37
2018-08-13T19:52:57.269Z,45.22
2018-08-13T19:55:26.864Z,45.72
2018-08-13T19:57:56.495Z,45.77
2018-08-13T20:00:27.403Z,46.25
2018-08-13T20:02:57.136Z,45.67
2018-08-13T20:05:27.795Z,45.86
2018-08-13T20:07:57.454Z,45.81
2018-08-13T20:10:27.005Z,45.92
2018-08-13T20:12:56.755Z,46.16
2018-08-13T20:15:26.311Z,46.04
2018-08-13T20:17:55.988Z,47.02
2018-08-13T20:20:25.585Z,46.69
2018-08-13T20:22:55.245Z,46.04
2018-08-13T20:25:24.899Z,46.69
2018-08-13T20:27:54.503Z,46.68
2018-08-13T20:30:24.179Z,47.52
2018-08-13T20:32:54.102Z,46.48
2018-08-13T20:35:23.663Z,46.87
2018-08-13T20:37:53.249Z,47.17
2018-08-13T20:40:22.976Z,46.73
2018-08-13T20:42:52.622Z,46.82
2018-08-13T20:45:22.647Z,47.08
2018-08-13T20:47:52.242Z,47.52
2018-08-13T20:50:24.008Z,47.14
2018-08-13T20:52:54.440Z,47.08
2018-08-13T20:55:28.276Z,47.81
2018-08-13T20:57:57.879Z,47.61
2018-08-13T21:00:29.120Z,47.83
2018-08-13T21:02:58.835Z,47.70
2018-08-13T21:05:28.478Z,48.01
2018-08-13T21:07:58.048Z,48.21
2018-08-13T21:10:27.747Z,48.35
2018-08-13T21:12:57.363Z,47.95
2018-08-13T21:15:27.019Z,48.31
2018-08-13T21:17:56.530Z,48.11
2018-08-13T21:20:27.904Z,48.21
2018-08-13T21:22:57.727Z,48.25
2018-08-13T21:25:27.367Z,48.47
2018-08-13T21:27:57.056Z,48.09
2018-08-13T21:30:26.659Z,48.73
2018-08-13T21:32:56.267Z,48.78
2018-08-13T21:35:26.407Z,48.65
2018-08-13T21:37:55.951Z,48.88
2018-08-13T21:40:25.546Z,48.99
2018-08-13T21:42:55.213Z,49.13
2018-08-13T21:45:24.792Z,48.78
2018-08-13T21:47:54.465Z,49.14
2018-08-13T21:50:24.221Z,50.07
2018-08-13T21:52:53.807Z,49.46
2018-08-13T21:55:23.382Z,49.98
2018-08-13T21:57:53.026Z,49.98
2018-08-13T22:00:28.016Z,50.41
2018-08-13T22:02:59.784Z,50.52
2018-08-13T22:05:29.439Z,50.04
2018-08-13T22:07:59.300Z,51.07
2018-08-13T22:10:28.974Z,50.66
2018-08-13T22:12:58.587Z,50.72
2018-08-13T22:15:29.098Z,50.80
2018-08-13T22:18:04.183Z,50.75
2018-08-13T22:20:35.068Z,51.28
2018-08-13T22:23:05.552Z,50.54
2018-08-13T22:25:41.798Z,50.67
2018-08-13T22:28:12.280Z,50.64
2018-08-13T22:30:42.064Z,50.49
2018-08-13T22:33:12.571Z,50.95
2018-08-13T22:35:42.150Z,50.71
2018-08-13T22:38:11.827Z,50.50
2018-08-13T22:40:41.771Z,50.37
2018-08-13T22:43:11.335Z,50.40
2018-08-13T22:45:40.879Z,50.03
2018-08-13T22:48:10.560Z,50.68
2018-08-13T22:50:40.107Z,50.59
2018-08-13T22:53:09.700Z,50.97
2018-08-13T22:55:39.447Z,51.05
2018-08-13T22:58:09.079Z,50.49
2018-08-13T23:00:38.718Z,51.37
2018-08-13T23:03:08.471Z,51.73
2018-08-13T23:05:38.059Z,51.77
2018-08-13T23:08:07.888Z,51.36
2018-08-13T23:10:37.447Z,51.58
2018-08-13T23:13:14.560Z,52.35
2018-08-13T23:15:44.251Z,51.71
2018-08-13T23:18:13.918Z,51.86
2018-08-13T23:20:43.629Z,51.42
2018-08-13T23:23:13.239Z,51.52
2018-08-13T23:25:42.840Z,51.30
2018-08-13T23:28:12.729Z,52.16
2018-08-13T23:30:42.275Z,52.17
2018-08-13T23:33:11.915Z,51.17
2018-08-13T23:35:41.460Z,52.39
2018-08-13T23:38:11.048Z,52.58
2018-08-13T23:40:40.625Z,51.88
2018-08-13T23:43:10.220Z,52.55
2018-08-13T23:45:39.829Z,52.57
2018-08-13T23:48:09.335Z,52.55
2018-08-13T23:50:38.972Z,52.34
2018-08-13T23:53:08.636Z,52.11
2018-08-13T23:55:39.515Z,52.19
2018-08-13T23:58:12.130Z,52.40
